This is the latest recevied weather packets stored in our database for station/object IZ5TJI-3. If no packets are shown the sender has not sent any weather packets the latest 10 day(s).
| Time | Temp. | Humidity | Pressure | Rain* | Wind** | Luminosity | Snow |
|---|---|---|---|---|---|---|---|
| 1777709723 | 15.56° C | 48% | 1024.6 hPa | 0 mm | - | - | - |
| 1777708823 | 15° C | 49% | 1024.8 hPa | 0 mm | - | - | - |
| 1777707923 | 13.89° C | 51% | 1024.8 hPa | 0 mm | - | - | - |
| 1777707023 | 13.33° C | 52% | 1024.9 hPa | 0 mm | - | - | - |
| 1777706123 | 12.22° C | 54% | 1025 hPa | 0 mm | - | - | - |
| 1777705223 | 11.11° C | 58% | 1024.9 hPa | 0 mm | - | - | - |
| 1777704323 | 10.56° C | 59% | 1025.1 hPa | 0 mm | - | - | - |
| 1777703423 | 9.44° C | 63% | 1025.2 hPa | 0 mm | - | - | - |
| 1777702523 | 7.78° C | 68% | 1025.3 hPa | 0 mm | - | - | - |
| 1777701623 | 7.78° C | 69% | 1025.2 hPa | 0 mm | - | - | - |
| 1777700723 | 7.22° C | 68% | 1025.1 hPa | 0 mm | - | - | - |
| 1777699823 | 6.67° C | 70% | 1024.9 hPa | 0 mm | - | - | - |
| 1777698923 | 5.56° C | 71% | 1024.8 hPa | 0 mm | - | - | - |
| 1777698023 | 5° C | 71% | 1024.6 hPa | 0 mm | - | - | - |
| 1777697123 | 4.44° C | 72% | 1024.7 hPa | 0 mm | - | - | - |
| 1777696223 | 3.89° C | 70% | 1024.6 hPa | 0 mm | - | - | - |
| 1777695323 | 4.44° C | 69% | 1024.6 hPa | 0 mm | - | - | - |
| 1777694423 | 4.44° C | 69% | 1024.4 hPa | 0 mm | - | - | - |
| 1777693523 | 5° C | 69% | 1024.5 hPa | 0 mm | - | - | - |
| 1777692623 | 5° C | 71% | 1024.4 hPa | 0 mm | - | - | - |
| 1777691723 | 5° C | 69% | 1024.4 hPa | 0 mm | - | - | - |
| 1777690823 | 5° C | 66% | 1024.4 hPa | 0 mm | - | - | - |
| 1777689923 | 5° C | 65% | 1024.4 hPa | 0 mm | - | - | - |
| 1777689023 | 5.56° C | 64% | 1024.4 hPa | 0 mm | - | - | - |
| 1777688123 | 5.56° C | 63% | 1024.5 hPa | 0 mm | - | - | - |
* Rain latest hour (hover to see other rain measurements)
** Current wind speed in m/s (hover to see current wind gust speed)